LGKC

Kithira Airport

Kithira Island, Greece
TAF LGKC 161700Z 1618/1703 26010KT CAVOK
Issued Valid From Valid To
Jul-16 @ 17:00 UTC
(3 hours ago)
Jul-16 @ 18:00 UTC
(2 hours ago)
Jul-17 @ 03:00 UTC
(in 7 hours)
Jul-16 @ 18:00 to Jul-17 @ 03:00
TAF LGKC 161700Z 1618/1703 26010KT CAVOK
Wind Visibility Clouds Conditions
260° at 10 knots 10,000+ meters
  • No significant clouds
TAF LGKC 161700Z 1618/1703 26010KT CAVOK
Issued Jul-16 @ 17:00 UTC
(3 hours ago)
Valid From Jul-16 @ 18:00 UTC
(2 hours ago)
Valid To Jul-17 @ 03:00 UTC
(in 7 hours)
Jul-16 @ 18:00 - Jul-17 @ 03:00
Wind Visibility
260° at 10 knots 10,000+ meters
Clouds
  • No significant clouds
Conditions